Time;durP1;ratioP1;P1;durP2;ratioP2;P2;SDS_P1;SDS_P2;PMS_P1;PMS_P2;Temp;Humidity;BMP_temperature;BMP_pressure;BME280_temperature;BME280_humidity;BME280_pressure;Samples;Min_cycle;Max_cycle;Signal;HPM_P1;HPM_P2
2023/10/25 00:02:14;;;;;;;;;2.00;2.00;;;;;14.48;65.20;99453.41;5059334;28;45361;-70
2023/10/25 00:04:40;;;;;;;;;1.67;1.67;;;;;14.52;65.98;99454.66;5059048;28;51390;-70
2023/10/25 00:07:06;;;;;;;;;1.67;1.33;;;;;14.55;65.64;99453.41;5059309;28;45526;-69
2023/10/25 00:09:32;;;;;;;;;4.33;1.00;;;;;14.54;66.10;99446.41;5059186;28;46052;-69
2023/10/25 00:11:57;;;;;;;;;2.00;2.00;;;;;14.32;66.37;99400.25;5058855;28;45553;-70
2023/10/25 00:14:22;;;;;;;;;1.00;1.00;;;;;14.49;66.75;99433.66;5040884;28;45278;-70
2023/10/25 00:16:48;;;;;;;;;0.25;0.25;;;;;14.52;67.23;99429.75;5059532;28;45273;-70
2023/10/25 00:19:13;;;;;;;;;1.67;1.00;;;;;14.46;68.02;99412.66;5058838;28;47291;-70
2023/10/25 00:21:38;;;;;;;;;3.00;1.00;;;;;14.53;68.05;99420.69;5058700;28;56788;-70
2023/10/25 00:24:04;;;;;;;;;2.50;1.00;;;;;14.42;68.52;99406.06;5040582;28;58476;-70
2023/10/25 00:26:29;;;;;;;;;1.67;1.67;;;;;14.52;68.95;99416.38;5059147;28;45509;-70
2023/10/25 00:28:55;;;;;;;;;3.00;1.00;;;;;14.42;68.79;99400.69;5058665;28;46497;-70
2023/10/25 00:31:20;;;;;;;;;0.00;0.00;;;;;14.46;69.33;99422.53;5058925;28;45511;-69
2023/10/25 00:33:46;;;;;;;;;1.50;1.50;;;;;14.46;68.75;99420.69;5059049;28;45761;-69
2023/10/25 00:36:11;;;;;;;;;1.00;1.00;;;;;14.37;69.90;99418.34;5059193;28;45280;-69
2023/10/25 00:38:36;;;;;;;;;0.00;0.00;;;;;14.43;69.99;99423.78;5058571;28;46519;-70
2023/10/25 00:41:02;;;;;;;;;1.00;1.00;;;;;14.44;70.47;99421.91;5058813;28;45349;-70
2023/10/25 00:43:27;;;;;;;;;2.00;0.00;;;;;14.46;70.78;99401.16;5058305;28;54942;-69
2023/10/25 00:45:58;;;;;;;;;2.00;1.50;;;;;14.47;70.57;99392.91;5058182;28;52018;-70
2023/10/25 00:48:24;;;;;;;;;1.67;1.67;;;;;14.42;71.12;99394.53;5058674;28;46462;-70
2023/10/25 00:50:51;;;;;;;;;1.00;0.50;;;;;14.13;71.38;99340.34;5058563;28;45448;-71
2023/10/25 00:53:16;;;;;;;;;0.75;0.75;;;;;14.31;71.17;99371.88;5058507;28;45356;-70
2023/10/25 00:55:42;;;;;;;;;1.00;1.00;;;;;14.37;71.66;99383.59;5058695;28;45579;-70
2023/10/25 00:58:07;;;;;;;;;1.00;1.00;;;;;14.38;71.45;99383.38;5058498;28;46427;-70
2023/10/25 01:00:34;;;;;;;;;1.00;1.00;;;;;14.34;71.93;99374.13;5058323;28;45385;-71
2023/10/25 01:03:06;;;;;;;;;1.00;1.00;;;;;13.83;72.88;99328.34;5058412;28;45376;-69
2023/10/25 01:05:32;;;;;;;;;3.00;1.50;;;;;13.79;74.08;99313.72;5058713;28;45419;-70
2023/10/25 01:07:57;;;;;;;;;1.00;1.00;;;;;14.02;74.02;99356.16;5058268;28;45571;-71
2023/10/25 01:10:22;;;;;;;;;3.00;1.00;;;;;14.02;74.28;99342.78;5058047;28;45436;-70
2023/10/25 01:12:48;;;;;;;;;1.00;1.00;;;;;13.86;74.67;99330.59;5058299;28;45400;-71
2023/10/25 01:15:13;;;;;;;;;1.00;1.00;;;;;13.89;75.22;99340.88;5058195;28;45666;-70
2023/10/25 01:17:39;;;;;;;;;0.50;0.50;;;;;13.83;75.14;99325.66;5057366;28;65670;-69
2023/10/25 01:20:06;;;;;;;;;1.00;1.00;;;;;13.70;76.32;99319.22;5058110;28;45335;-70
2023/10/25 01:22:31;;;;;;;;;2.00;0.75;;;;;13.59;76.65;99309.09;5057939;28;45245;-70
2023/10/25 01:24:56;;;;;;;;;0.50;0.50;;;;;13.19;77.52;99248.53;5040398;28;45512;-70
2023/10/25 01:27:22;;;;;;;;;1.00;1.00;;;;;13.43;78.59;99282.75;5057662;28;45571;-71
2023/10/25 01:29:47;;;;;;;;;1.75;0.50;;;;;13.42;78.47;99275.78;5057893;28;45613;-70
2023/10/25 01:32:12;;;;;;;;;3.75;1.50;;;;;13.15;78.35;99220.56;5040052;28;45342;-71
2023/10/25 01:34:38;;;;;;;;;2.67;1.00;;;;;13.21;78.36;99225.13;5056935;28;45408;-70
2023/10/25 01:37:03;;;;;;;;;3.00;2.00;;;;;13.37;79.14;99238.16;5057648;28;46494;-70
2023/10/25 01:39:28;;;;;;;;;2.33;2.33;;;;;13.34;79.02;99235.88;5057702;28;45418;-70
2023/10/25 01:41:54;;;;;;;;;3.33;2.33;;;;;13.31;78.64;99231.78;5057164;28;56953;-70
2023/10/25 01:44:19;;;;;;;;;1.67;1.67;;;;;12.94;79.43;99174.28;5057527;28;45471;-70
2023/10/25 01:46:44;;;;;;;;;1.33;1.33;;;;;13.29;79.57;99238.31;5057531;28;46437;-70
2023/10/25 01:49:10;;;;;;;;;1.00;1.00;;;;;13.30;78.94;99231.97;5056990;28;64392;-70
2023/10/25 01:51:35;;;;;;;;;1.67;0.33;;;;;13.31;79.35;99221.09;5057542;28;45324;-70
2023/10/25 01:54:00;;;;;;;;;1.67;1.67;;;;;13.35;79.08;99208.16;5057771;28;45432;-70
2023/10/25 01:56:26;;;;;;;;;0.33;0.33;;;;;13.34;79.44;99199.34;5057378;28;46397;-69
2023/10/25 01:58:51;;;;;;;;;1.33;1.33;;;;;13.35;78.91;99198.31;5039485;28;47125;-70
2023/10/25 02:01:16;;;;;;;;;0.33;0.33;;;;;13.24;78.47;99176.72;5057614;28;45387;-70
2023/10/25 02:03:42;;;;;;;;;1.00;1.00;;;;;12.99;79.13;99131.81;5057852;28;45372;-71
2023/10/25 02:06:14;;;;;;;;;0.50;0.50;;;;;13.33;79.09;99173.66;5057412;28;46372;-71
2023/10/25 02:08:39;;;;;;;;;1.50;0.00;;;;;13.20;79.39;99148.75;5057153;28;45686;-70
2023/10/25 02:11:06;;;;;;;;;1.50;0.00;;;;;13.22;79.16;99160.91;5057192;28;45479;-70
2023/10/25 02:13:31;;;;;;;;;0.25;0.25;;;;;13.21;79.61;99151.22;5057684;28;45408;-70
2023/10/25 02:15:57;;;;;;;;;1.00;1.00;;;;;13.29;80.06;99155.59;5057269;28;45606;-70
2023/10/25 02:18:22;;;;;;;;;0.75;0.75;;;;;13.34;79.84;99134.44;5057260;28;45369;-70
2023/10/25 02:20:47;;;;;;;;;0.67;0.67;;;;;13.34;79.75;99140.63;5057250;28;45925;-70
2023/10/25 02:23:13;;;;;;;;;0.75;0.75;;;;;13.42;79.46;99130.78;5056688;28;57123;-70
2023/10/25 02:25:38;;;;;;;;;0.67;0.67;;;;;13.45;79.91;99136.56;5056895;28;60357;-71
2023/10/25 02:28:03;;;;;;;;;2.00;0.75;;;;;13.49;79.95;99121.75;5056913;28;46147;-70
2023/10/25 02:30:28;;;;;;;;;1.00;1.00;;;;;13.51;79.47;99114.38;5057233;28;45505;-70
2023/10/25 02:32:54;;;;;;;;;0.75;0.25;;;;;13.57;79.42;99102.88;5057138;28;45357;-69
2023/10/25 02:35:19;;;;;;;;;0.75;0.75;;;;;13.51;79.44;99086.84;5056870;28;46375;-70
2023/10/25 02:37:44;;;;;;;;;1.75;1.75;;;;;13.62;79.74;99095.09;5056899;28;45412;-70
2023/10/25 02:40:10;;;;;;;;;1.75;0.25;;;;;13.67;79.81;99086.47;5057198;28;45300;-70
2023/10/25 02:42:36;;;;;;;;;1.33;1.33;;;;;13.63;79.22;99058.53;5057030;28;45290;-70
2023/10/25 02:45:01;;;;;;;;;0.00;0.00;;;;;13.72;79.20;99072.50;5056714;28;47508;-70
2023/10/25 02:47:26;;;;;;;;;0.25;0.25;;;;;13.73;79.10;99052.78;5056817;28;45262;-71
2023/10/25 02:49:52;;;;;;;;;0.00;0.00;;;;;13.76;79.25;99057.69;5056933;28;45396;-70
2023/10/25 02:52:17;;;;;;;;;0.25;0.25;;;;;13.77;79.59;99059.34;5057053;28;45456;-69
2023/10/25 02:54:42;;;;;;;;;0.00;0.00;;;;;13.77;79.44;99054.00;5038732;28;46291;-69
2023/10/25 02:57:08;;;;;;;;;0.00;0.00;;;;;13.80;79.28;99053.59;5057695;28;45503;-70
2023/10/25 02:59:33;;;;;;;;;0.75;0.75;;;;;13.43;79.51;98994.44;5060381;28;45303;-71
2023/10/25 03:01:58;;;;;;;;;3.00;2.00;;;;;13.74;79.59;99036.53;5060848;28;45237;-70
2023/10/25 03:04:23;;;;;;;;;0.00;0.00;;;;;13.80;79.54;99021.53;5060208;28;46470;-70
2023/10/25 03:06:49;;;;;;;;;1.00;1.00;;;;;13.81;79.69;99039.19;5059392;28;67129;-70
2023/10/25 03:09:14;;;;;;;;;0.00;0.00;;;;;13.75;79.90;99010.66;5059119;28;45301;-71
2023/10/25 03:11:39;;;;;;;;;2.00;2.00;;;;;13.78;79.96;99018.25;5060432;28;45412;-70
2023/10/25 03:14:05;;;;;;;;;1.00;0.25;;;;;13.59;80.27;98982.50;5059753;28;54610;-70
2023/10/25 03:16:30;;;;;;;;;1.00;1.00;;;;;13.81;80.78;99013.31;5059811;28;45508;-70
2023/10/25 03:18:55;;;;;;;;;1.50;1.00;;;;;13.87;80.56;99006.34;5042045;28;45278;-69
2023/10/25 03:21:21;;;;;;;;;2.00;2.00;;;;;13.87;80.85;99001.81;5060282;28;45477;-70
2023/10/25 03:23:48;;;;;;;;;0.00;0.00;;;;;13.85;80.79;98997.72;5059939;28;46083;-70
2023/10/25 03:26:13;;;;;;;;;1.75;1.00;;;;;13.93;80.68;99005.50;5059599;28;45399;-70
2023/10/25 03:28:38;;;;;;;;;0.00;0.00;;;;;13.92;81.12;99002.00;5060118;28;45547;-71
2023/10/25 03:31:05;;;;;;;;;1.00;1.00;;;;;13.97;81.09;98990.69;5060045;28;45587;-70
2023/10/25 03:33:30;;;;;;;;;1.00;1.00;;;;;13.78;80.91;98943.47;5059465;28;46375;-70
2023/10/25 03:35:55;;;;;;;;;2.75;1.00;;;;;14.04;80.48;98980.81;5059796;28;45450;-70
2023/10/25 03:38:21;;;;;;;;;1.00;0.00;;;;;13.99;81.03;98980.59;5059934;28;45196;-70
2023/10/25 03:40:47;;;;;;;;;1.00;1.00;;;;;13.70;80.78;98915.94;5059645;28;45456;-71
2023/10/25 03:43:12;;;;;;;;;1.00;1.00;;;;;14.01;80.88;98949.16;5059549;28;46578;-70
2023/10/25 03:45:37;;;;;;;;;1.00;1.00;;;;;14.01;80.86;98951.81;5059701;28;45273;-71
2023/10/25 03:48:03;;;;;;;;;0.00;0.00;;;;;14.07;80.69;98958.22;5041700;28;45599;-71
2023/10/25 03:50:28;;;;;;;;;0.75;0.75;;;;;14.09;81.01;98954.28;5059835;28;45424;-70
2023/10/25 03:52:53;;;;;;;;;1.00;1.00;;;;;14.02;81.22;98934.78;5041087;28;51275;-70
2023/10/25 03:55:19;;;;;;;;;1.25;1.25;;;;;14.10;81.20;98947.91;5059210;28;45360;-69
2023/10/25 03:57:44;;;;;;;;;0.50;0.50;;;;;13.76;81.50;98876.09;5059346;28;45322;-71
2023/10/25 04:00:10;;;;;;;;;0.75;0.75;;;;;13.98;81.50;98914.84;5058281;28;45557;-70
2023/10/25 04:02:35;;;;;;;;;1.00;1.00;;;;;14.13;81.54;98923.44;5059144;28;47115;-70
2023/10/25 04:05:00;;;;;;;;;3.50;2.00;;;;;14.13;81.74;98918.09;5059065;28;45506;-70
2023/10/25 04:07:26;;;;;;;;;1.00;1.00;;;;;13.80;81.62;98847.91;5059100;28;45546;-71
2023/10/25 04:09:51;;;;;;;;;0.50;0.50;;;;;14.10;81.96;98904.34;5059455;28;45361;-70
2023/10/25 04:12:16;;;;;;;;;2.00;1.00;;;;;14.11;82.04;98905.97;5058672;28;46316;-70
2023/10/25 04:14:45;;;;;;;;;1.00;1.00;;;;;14.10;82.37;98905.16;5058649;28;52714;-69
2023/10/25 04:17:10;;;;;;;;;1.25;1.25;;;;;14.08;82.58;98890.38;5058829;28;45319;-70
2023/10/25 04:19:37;;;;;;;;;1.75;0.50;;;;;13.96;82.92;98868.81;5059228;28;45503;-69
2023/10/25 04:22:03;;;;;;;;;3.75;2.00;;;;;14.04;83.05;98868.59;5059035;28;47563;-70
2023/10/25 04:24:28;;;;;;;;;1.00;1.00;;;;;14.09;83.20;98868.78;5059010;28;45262;-71
2023/10/25 04:26:53;;;;;;;;;0.00;0.00;;;;;14.05;83.04;98858.72;5058603;28;45447;-69
2023/10/25 04:29:19;;;;;;;;;0.50;0.50;;;;;14.09;83.06;98860.75;5040792;28;46142;-73
2023/10/25 04:31:44;;;;;;;;;0.00;0.00;;;;;14.16;83.52;98882.91;5058168;28;57304;-70
2023/10/25 04:34:09;;;;;;;;;1.00;1.00;;;;;13.96;83.84;98832.25;5040306;28;45420;-70
2023/10/25 04:36:34;;;;;;;;;1.50;1.00;;;;;14.12;83.68;98854.97;5058561;28;45393;-70
2023/10/25 04:39:00;;;;;;;;;3.00;1.25;;;;;14.21;83.69;98855.53;5058504;28;45342;-70
2023/10/25 04:41:25;;;;;;;;;3.50;1.00;;;;;13.77;84.03;98787.72;5058113;28;46371;-71
2023/10/25 04:43:50;;;;;;;;;0.25;0.25;;;;;14.18;84.02;98848.78;5057845;28;45455;-70
2023/10/25 04:46:16;;;;;;;;;0.00;0.00;;;;;14.20;84.73;98853.91;5058709;28;45436;-70
2023/10/25 04:48:41;;;;;;;;;2.00;0.75;;;;;14.13;84.66;98837.91;5058669;28;45305;-70
2023/10/25 04:51:07;;;;;;;;;1.75;1.75;;;;;13.88;84.77;98792.41;5057753;28;58191;-71
2023/10/25 04:53:33;;;;;;;;;2.00;2.00;;;;;14.22;84.51;98842.00;5058415;28;45385;-71
2023/10/25 04:55:58;;;;;;;;;2.00;1.00;;;;;14.18;84.82;98834.59;5058098;28;45435;-70
2023/10/25 04:58:25;;;;;;;;;1.00;1.00;;;;;13.93;85.25;98799.78;5058637;28;45500;-70
2023/10/25 05:00:51;;;;;;;;;3.00;1.67;;;;;14.25;84.96;98838.91;5058191;28;45836;-70
2023/10/25 05:03:17;;;;;;;;;1.50;1.00;;;;;14.25;85.05;98836.22;5058108;28;45471;-70
2023/10/25 05:05:42;;;;;;;;;2.33;2.33;;;;;14.03;85.38;98802.84;5058167;28;45471;-71
2023/10/25 05:08:09;;;;;;;;;1.00;1.00;;;;;14.27;85.66;98828.81;5058479;28;45704;-71
2023/10/25 05:10:34;;;;;;;;;1.00;1.00;;;;;14.35;85.39;98848.28;5058043;28;45847;-69
2023/10/25 05:13:00;;;;;;;;;1.00;1.00;;;;;14.37;85.64;98839.00;5057995;28;48189;-71
2023/10/25 05:15:27;;;;;;;;;1.00;1.00;;;;;14.34;86.14;98827.94;5058346;28;45558;-70
2023/10/25 05:17:53;;;;;;;;;1.25;1.25;;;;;14.07;86.14;98784.53;5058263;28;45289;-71
2023/10/25 05:20:22;;;;;;;;;3.75;2.00;;;;;14.34;86.31;98830.59;5056827;28;45750;-70
2023/10/25 05:22:52;;;;;;;;;1.00;1.00;;;;;14.28;86.51;98827.78;5057714;28;45381;-70
2023/10/25 05:25:18;;;;;;;;;1.00;1.00;;;;;14.41;87.12;98837.53;5057879;28;45463;-70
2023/10/25 05:27:44;;;;;;;;;1.00;0.50;;;;;14.40;86.73;98835.09;5057848;28;45470;-70
2023/10/25 05:30:12;;;;;;;;;2.00;2.00;;;;;14.40;87.31;98832.41;5057422;28;47099;-70
2023/10/25 05:32:43;;;;;;;;;1.50;1.50;;;;;14.14;87.28;98788.78;5057843;28;45287;-69
2023/10/25 05:35:09;;;;;;;;;0.75;0.75;;;;;14.45;87.18;98821.94;5057964;28;45418;-71
2023/10/25 05:37:35;;;;;;;;;1.50;1.50;;;;;14.29;87.40;98797.31;5057754;28;45212;-71
2023/10/25 05:40:00;;;;;;;;;2.00;1.00;;;;;14.43;87.44;98814.16;5057663;28;46666;-70
2023/10/25 05:42:27;;;;;;;;;4.25;1.25;;;;;14.44;87.46;98809.63;5057646;28;45229;-70
2023/10/25 05:44:54;;;;;;;;;3.00;2.50;;;;;14.21;87.44;98762.81;5057508;28;45465;-71
2023/10/25 05:47:21;;;;;;;;;1.50;1.00;;;;;14.51;87.67;98813.06;5057805;28;45452;-71
2023/10/25 05:49:47;;;;;;;;;1.25;1.25;;;;;14.50;88.08;98809.56;5057063;28;48262;-71
2023/10/25 05:52:12;;;;;;;;;2.00;2.00;;;;;14.32;87.60;98766.66;5057471;28;45301;-70
2023/10/25 05:54:38;;;;;;;;;1.33;1.33;;;;;14.61;88.02;98813.38;5057513;28;45491;-69
2023/10/25 05:57:04;;;;;;;;;1.75;1.75;;;;;14.64;87.40;98818.31;5057315;28;45316;-71
2023/10/25 05:59:30;;;;;;;;;2.00;2.00;;;;;14.70;87.52;98820.13;5056898;28;45985;-70
2023/10/25 06:02:10;;;;;;;;;2.00;2.00;;;;;14.73;87.65;98819.69;5057128;28;45408;-71
2023/10/25 06:04:40;;;;;;;;;4.00;1.75;;;;;14.68;87.34;98811.50;5041737;28;45506;-70
2023/10/25 06:07:06;;;;;;;;;2.00;2.00;;;;;14.80;87.23;98831.13;5057142;28;45337;-70
2023/10/25 06:09:32;;;;;;;;;1.00;1.00;;;;;14.80;87.06;98817.75;5056450;28;46853;-71
2023/10/25 06:11:57;;;;;;;;;2.25;2.25;;;;;14.79;86.87;98809.94;5056335;28;45538;-70
2023/10/25 06:14:23;;;;;;;;;1.00;1.00;;;;;14.64;86.40;98778.19;5057056;28;45281;-69
2023/10/25 06:16:52;;;;;;;;;2.00;2.00;;;;;14.66;86.48;98776.13;5057017;28;45238;-69
2023/10/25 06:19:17;;;;;;;;;3.00;1.50;;;;;14.98;86.58;98827.69;5056640;28;46686;-69
2023/10/25 06:21:42;;;;;;;;;2.00;2.00;;;;;14.99;86.28;98834.69;5056545;28;45433;-70
2023/10/25 06:24:08;;;;;;;;;1.75;1.75;;;;;15.04;86.13;98842.09;5056736;28;47079;-69
2023/10/25 06:26:33;;;;;;;;;1.25;1.25;;;;;15.01;86.40;98829.13;5056509;28;45533;-70
2023/10/25 06:28:58;;;;;;;;;2.00;1.00;;;;;15.07;86.25;98836.28;5056765;28;45347;-70
2023/10/25 06:31:24;;;;;;;;;1.50;1.00;;;;;14.80;85.91;98782.16;5055911;28;57591;-69
2023/10/25 06:33:49;;;;;;;;;3.25;3.25;;;;;15.08;86.13;98838.75;5054345;28;53342;-70
2023/10/25 06:36:16;;;;;;;;;3.00;2.00;;;;;15.15;85.99;98842.16;5055495;28;45617;-70
2023/10/25 06:38:42;;;;;;;;;4.25;2.00;;;;;15.18;85.96;98844.41;5054431;28;46653;-69
2023/10/25 06:41:18;;;;;;;;;2.50;2.50;;;;;15.25;85.80;98851.56;5053244;28;45438;-70
2023/10/25 06:43:43;;;;;;;;;1.75;1.75;;;;;15.26;85.40;98851.34;5055894;28;45506;-72
2023/10/25 06:46:10;;;;;;;;;0.25;0.25;;;;;15.31;85.18;98853.34;5055343;28;45312;-70
2023/10/25 06:48:36;;;;;;;;;2.25;2.25;;;;;15.28;84.88;98843.91;5055529;28;46444;-70
2023/10/25 06:51:04;;;;;;;;;1.25;1.25;;;;;15.33;84.72;98853.94;5056337;28;45457;-69
2023/10/25 06:53:30;;;;;;;;;2.00;1.00;;;;;15.13;84.84;98827.38;5056656;28;45263;-70
2023/10/25 06:55:55;;;;;;;;;0.50;0.50;;;;;15.28;84.68;98851.94;5055898;28;45544;-71
2023/10/25 06:58:21;;;;;;;;;1.00;1.00;;;;;15.25;84.20;98854.25;5055439;28;46318;-70
2023/10/25 07:00:49;;;;;;;;;2.00;1.00;;;;;15.36;84.40;98869.56;5056301;28;45492;-71
2023/10/25 07:03:17;;;;;;;;;1.75;1.75;;;;;15.44;84.08;98878.16;5055677;28;45380;-70
2023/10/25 07:05:44;;;;;;;;;0.50;0.50;;;;;15.45;83.80;98869.09;5056450;28;45531;-70
2023/10/25 07:08:10;;;;;;;;;0.75;0.75;;;;;15.52;82.95;98869.00;5035924;28;46975;-70
2023/10/25 07:10:36;;;;;;;;;0.00;0.00;;;;;15.51;82.44;98870.88;5054715;28;45238;-70
2023/10/25 07:13:01;;;;;;;;;0.00;0.00;;;;;15.50;81.94;98879.13;5054830;28;45320;-80
2023/10/25 07:15:26;;;;;;;;;0.00;0.00;;;;;15.38;81.64;98859.47;5039061;28;45494;-70
2023/10/25 07:17:52;;;;;;;;;0.00;0.00;;;;;15.44;81.73;98858.59;5035132;28;46666;-70
2023/10/25 07:20:18;;;;;;;;;1.00;1.00;;;;;15.17;81.76;98825.88;5039860;28;45478;-73
2023/10/25 07:22:43;;;;;;;;;0.00;0.00;;;;;15.24;81.60;98831.19;5056345;28;45494;-72
2023/10/25 07:25:09;;;;;;;;;0.00;0.00;;;;;15.57;81.19;98874.50;5055547;28;61049;-71
2023/10/25 07:27:37;;;;;;;;;2.00;1.00;;;;;15.55;80.33;98870.41;5055737;28;46742;-70
2023/10/25 07:30:03;;;;;;;;;0.75;0.75;;;;;15.63;80.89;98876.34;5037387;28;45356;-71
2023/10/25 07:32:30;;;;;;;;;0.00;0.00;;;;;15.60;80.51;98878.63;5056189;28;45485;-69
2023/10/25 07:34:56;;;;;;;;;0.75;0.00;;;;;15.70;80.42;98881.63;5056400;28;45332;-70
2023/10/25 07:37:21;;;;;;;;;0.00;0.00;;;;;15.75;79.98;98892.50;5055701;28;46668;-69
2023/10/25 07:39:46;;;;;;;;;0.00;0.00;;;;;15.75;79.69;98898.66;5054877;28;67230;-68
2023/10/25 07:42:11;;;;;;;;;0.00;0.00;;;;;15.50;79.94;98849.66;5055787;28;49126;-69
2023/10/25 07:44:37;;;;;;;;;0.00;0.00;;;;;15.67;79.35;98868.69;5059151;28;45570;-71
2023/10/25 07:47:03;;;;;;;;;0.00;0.00;;;;;15.81;79.35;98895.09;5059144;28;46464;-70
2023/10/25 07:49:28;;;;;;;;;0.50;0.50;;;;;15.79;79.68;98894.50;5059100;28;45360;-70
2023/10/25 07:51:57;;;;;;;;;2.25;2.25;;;;;15.76;79.51;98883.41;5059278;28;45339;-71
2023/10/25 07:54:22;;;;;;;;;0.00;0.00;;;;;15.52;79.14;98835.00;5059388;28;45305;-71
2023/10/25 07:56:47;;;;;;;;;0.00;0.00;;;;;15.86;79.46;98899.81;5058789;28;45651;-70
2023/10/25 07:59:13;;;;;;;;;0.00;0.00;;;;;15.86;78.91;98886.41;5059009;28;46454;-70
2023/10/25 08:01:38;;;;;;;;;0.00;0.00;;;;;15.87;78.82;98893.41;5059410;28;45389;-74
2023/10/25 08:04:07;;;;;;;;;0.00;0.00;;;;;15.93;78.59;98899.72;5059389;28;45490;-76
2023/10/25 08:06:32;;;;;;;;;0.00;0.00;;;;;15.88;78.23;98888.88;5059029;28;46735;-77
2023/10/25 08:08:58;;;;;;;;;0.00;0.00;;;;;15.88;78.64;98897.72;5040928;28;45492;-73
2023/10/25 08:11:23;;;;;;;;;0.00;0.00;;;;;15.80;78.38;98876.56;5058875;28;45483;-72
2023/10/25 08:13:48;;;;;;;;;0.00;0.00;;;;;15.90;77.94;98886.78;5059662;28;45345;-71
2023/10/25 08:16:14;;;;;;;;;1.00;0.00;;;;;15.98;77.12;98907.91;5058751;28;45531;-71
2023/10/25 08:18:39;;;;;;;;;2.00;2.00;;;;;15.94;77.62;98896.00;5058451;28;50920;-72
2023/10/25 08:21:12;;;;;;;;;1.00;1.00;;;;;16.06;76.90;98919.16;5058758;28;45499;-70
2023/10/25 08:23:38;;;;;;;;;0.00;0.00;;;;;15.99;77.13;98907.69;5058908;28;45447;-70
2023/10/25 08:26:04;;;;;;;;;1.00;1.00;;;;;16.04;77.03;98913.22;5058477;28;45803;-70
2023/10/25 08:28:29;;;;;;;;;0.00;0.00;;;;;16.06;76.23;98911.13;5058719;28;45302;-71
2023/10/25 08:30:55;;;;;;;;;0.75;0.00;;;;;16.05;76.20;98917.53;5040593;28;45423;-74
2023/10/25 08:33:20;;;;;;;;;0.50;0.50;;;;;16.06;76.43;98924.53;5058973;28;45316;-71
2023/10/25 08:35:45;;;;;;;;;0.00;0.00;;;;;16.05;75.98;98906.00;5057915;28;64517;-76
2023/10/25 08:38:10;;;;;;;;;0.75;0.75;;;;;16.06;76.10;98919.16;5058330;28;56917;-71
2023/10/25 08:40:40;;;;;;;;;0.00;0.00;;;;;15.94;75.74;98901.34;5058230;28;45333;-72
2023/10/25 08:43:05;;;;;;;;;0.00;0.00;;;;;16.10;75.80;98923.03;5040216;28;45357;-74
2023/10/25 08:45:35;;;;;;;;;1.00;0.00;;;;;16.00;75.62;98893.22;5058145;28;47818;-70
2023/10/25 08:48:04;;;;;;;;;1.00;1.00;;;;;16.02;75.53;98893.84;5058248;28;45360;-72
2023/10/25 08:50:33;;;;;;;;;0.00;0.00;;;;;16.28;74.95;98926.75;5040525;28;45472;-72
2023/10/25 08:52:59;;;;;;;;;3.00;3.00;;;;;16.35;75.15;98927.47;5058680;28;45622;-70
2023/10/25 08:55:25;;;;;;;;;0.00;0.00;;;;;16.33;74.47;98916.16;5057110;28;45772;-71
2023/10/25 08:57:55;;;;;;;;;0.00;0.00;;;;;16.42;74.38;98930.91;5038568;28;45512;-71
2023/10/25 09:00:22;;;;;;;;;0.00;0.00;;;;;16.48;73.72;98921.94;5058010;28;45554;-73
2023/10/25 09:02:47;;;;;;;;;0.00;0.00;;;;;16.53;73.71;98914.03;5058132;28;45527;-74
2023/10/25 09:05:13;;;;;;;;;0.50;0.50;;;;;16.17;73.90;98847.06;5057994;28;45471;-75
2023/10/25 09:07:38;;;;;;;;;0.00;0.00;;;;;16.54;73.93;98901.44;5057901;28;45249;-71
2023/10/25 09:10:15;;;;;;;;;0.25;0.25;;;;;16.73;73.72;98917.28;5055363;28;45458;-74
2023/10/25 09:12:41;;;;;;;;;0.75;0.00;;;;;16.81;73.32;98912.63;5055792;28;45497;-70
2023/10/25 09:15:07;;;;;;;;;0.00;0.00;;;;;16.73;73.42;98871.66;5055420;28;45834;-73
2023/10/25 09:17:34;;;;;;;;;0.00;0.00;;;;;17.16;72.54;98921.59;5055289;28;45386;-71
2023/10/25 09:19:59;;;;;;;;;0.50;0.25;;;;;17.04;71.51;98875.13;5055482;28;45513;-71
2023/10/25 09:22:28;;;;;;;;;0.00;0.00;;;;;17.27;71.34;98902.00;5055503;28;45468;-71
2023/10/25 09:24:56;;;;;;;;;1.75;1.75;;;;;17.40;71.03;98908.19;5055065;28;47820;-70
2023/10/25 09:27:23;;;;;;;;;0.00;0.00;;;;;17.46;71.10;98904.59;5055015;28;45518;-70
2023/10/25 09:29:49;;;;;;;;;0.50;0.50;;;;;17.57;70.44;98903.75;5055802;28;45546;-72
2023/10/25 09:32:17;;;;;;;;;0.75;0.50;;;;;17.66;70.45;98909.63;5056012;28;45536;-71
2023/10/25 09:34:43;;;;;;;;;2.00;2.00;;;;;17.67;70.43;98901.31;5039092;28;47115;-71
2023/10/25 09:37:08;;;;;;;;;4.67;2.67;;;;;17.74;70.22;98902.03;5057404;28;45316;-72
2023/10/25 09:39:37;;;;;;;;;2.75;2.00;;;;;17.70;70.17;98889.31;5057185;28;45219;-71
2023/10/25 09:42:11;;;;;;;;;1.00;1.00;;;;;17.86;69.28;98905.53;5057310;28;45328;-71
2023/10/25 09:44:51;;;;;;;;;0.25;0.25;;;;;17.88;69.37;98903.44;5037294;28;46938;-74
2023/10/25 09:47:18;;;;;;;;;0.50;0.50;;;;;17.87;69.22;98904.47;5033300;28;45389;-70
2023/10/25 09:49:45;;;;;;;;;0.00;0.00;;;;;17.87;68.95;98912.53;5034203;28;45615;-71
2023/10/25 09:52:17;;;;;;;;;0.00;0.00;;;;;17.87;68.68;98907.16;5035837;28;45397;-70
2023/10/25 09:54:49;;;;;;;;;0.50;0.50;;;;;17.87;68.37;98912.53;5034506;28;47701;-71
2023/10/25 09:57:17;;;;;;;;;0.75;0.75;;;;;17.78;68.15;98895.13;5035983;28;45425;-71
2023/10/25 09:59:43;;;;;;;;;0.50;0.50;;;;;17.96;67.97;98904.09;5035929;28;45218;-71
2023/10/25 10:02:13;;;;;;;;;1.00;1.00;;;;;17.88;67.37;98886.47;5036924;28;45449;-71
2023/10/25 10:04:39;;;;;;;;;1.00;1.00;;;;;18.02;67.56;98909.38;5036760;28;46016;-70
2023/10/25 10:07:25;;;;;;;;;0.00;0.00;;;;;17.98;67.08;98902.00;5018341;28;45227;-69
2023/10/25 10:09:58;;;;;;;;;0.25;0.25;;;;;17.90;67.24;98893.25;5037137;28;45407;-70
2023/10/25 10:12:23;;;;;;;;;0.00;0.00;;;;;17.87;66.88;98893.72;5019046;28;45504;-71
2023/10/25 10:14:48;;;;;;;;;0.00;0.00;;;;;17.74;66.57;98891.28;5036395;28;47354;-70
2023/10/25 10:17:18;;;;;;;;;0.50;0.50;;;;;17.73;67.24;98897.72;5036829;28;45349;-71
2023/10/25 10:19:50;;;;;;;;;0.00;0.00;;;;;17.69;67.50;98899.25;5036796;28;45461;-71
2023/10/25 10:22:18;;;;;;;;;0.75;0.75;;;;;17.71;67.83;98901.69;5037280;28;45528;-70
2023/10/25 10:24:48;;;;;;;;;1.75;0.00;;;;;17.74;68.38;98901.22;5036793;28;45691;-72
2023/10/25 10:27:25;;;;;;;;;3.00;1.00;;;;;17.76;67.98;98905.31;5034968;28;45362;-70
2023/10/25 10:29:51;;;;;;;;;0.00;0.00;;;;;17.28;67.83;98817.69;5036977;28;45172;-72
2023/10/25 10:32:17;;;;;;;;;0.00;0.00;;;;;17.66;67.92;98894.31;5037147;28;45366;-71
2023/10/25 10:34:47;;;;;;;;;1.00;1.00;;;;;17.70;68.34;98906.25;5018929;28;45732;-71
2023/10/25 10:37:16;;;;;;;;;3.00;1.00;;;;;17.56;69.16;98884.13;5036517;28;45323;-71
2023/10/25 10:40:03;;;;;;;;;3.00;3.00;;;;;17.64;68.94;98893.72;5036552;28;45254;-70
2023/10/25 10:42:28;;;;;;;;;7.33;5.33;;;;;17.63;69.37;98900.97;5036737;28;45484;-72
2023/10/25 10:45:06;;;;;;;;;3.67;3.67;;;;;17.62;69.16;98893.16;5036607;28;46493;-70
2023/10/25 10:47:43;;;;;;;;;3.00;3.00;;;;;17.63;69.01;98894.78;5036213;28;45406;-70
2023/10/25 10:50:18;;;;;;;;;6.00;6.00;;;;;17.33;68.61;98850.03;5036691;28;45520;-70
2023/10/25 10:52:45;;;;;;;;;4.25;3.25;;;;;17.56;68.51;98900.25;5035422;28;45507;-71
2023/10/25 10:55:22;;;;;;;;;1.50;1.50;;;;;17.47;68.43;98904.34;5036095;28;46891;-71
2023/10/25 10:57:48;;;;;;;;;1.25;1.25;;;;;17.40;69.04;98905.50;5036221;28;45343;-70
2023/10/25 11:00:16;;;;;;;;;2.00;2.00;;;;;17.30;68.83;98908.78;5036347;28;45332;-71
2023/10/25 11:02:48;;;;;;;;;3.00;3.00;;;;;17.16;70.62;98896.59;5036700;28;45357;-70
2023/10/25 11:05:15;;;;;;;;;1.75;1.75;;;;;17.24;71.17;98917.78;5018093;28;48583;-71
2023/10/25 11:07:41;;;;;;;;;6.67;6.67;;;;;17.13;71.43;98922.06;5036078;28;45397;-70
2023/10/25 11:10:07;;;;;;;;;2.50;2.50;;;;;17.12;71.74;98927.66;5036649;28;45309;-71
2023/10/25 11:12:32;;;;;;;;;2.50;2.50;;;;;17.09;72.12;98931.63;5018402;28;45491;-70
2023/10/25 11:15:03;;;;;;;;;2.00;2.00;;;;;17.02;72.53;98920.19;5034933;28;47269;-70
2023/10/25 11:17:29;;;;;;;;;2.00;2.00;;;;;17.02;73.19;98922.88;5036415;28;45349;-70
2023/10/25 11:19:55;;;;;;;;;3.50;2.00;;;;;16.86;73.55;98897.50;5039936;28;45254;-70
2023/10/25 11:22:20;;;;;;;;;3.75;3.75;;;;;16.95;73.36;98914.09;5039746;28;45512;-70
2023/10/25 11:24:51;;;;;;;;;2.00;2.00;;;;;16.96;73.15;98910.34;5038760;28;61151;-71
2023/10/25 11:27:16;;;;;;;;;1.00;1.00;;;;;16.95;73.22;98914.91;5039558;28;45235;-70
2023/10/25 11:29:42;;;;;;;;;2.00;2.00;;;;;16.97;72.90;98915.47;5039492;28;45562;-70
2023/10/25 11:32:12;;;;;;;;;2.00;2.00;;;;;16.73;73.35;98873.53;5039905;28;45353;-70